Stations météo

réclame
Mon MeteoGroup
Mont Aigoual, France (7560): Température de l'air & dewpoint: 17.10.2018 12:00:00 - 23.10.2018 12:00:00 (CEST)Mont Aigoual, France (7560): Vitesse du vent & gusts: 17.10.2018 12:00:00 - 23.10.2018 12:00:00 (CEST)Mont Aigoual, France (7560): Direction du vent: 17.10.2018 12:00:00 - 23.10.2018 12:00:00 (CEST)Mont Aigoual, France (7560): visibility: 17.10.2018 12:00:00 - 23.10.2018 12:00:00 (CEST)Mont Aigoual, France (7560): Quantités de précipitations: 17.10.2018 12:00:00 - 23.10.2018 12:00:00 (CEST)
Date & Time tt [°C] td [°C] ff [km/h] ff [knt] fx [km/h] fx [knt] dd vv [km] rr [mm]
23.10.2018 12:00:00 10,5 -2,6 22 12 40 22 N 20 0,0
23.10.2018 11:00:00 9,9 -2,1 29 16 51 27 N 20 0,0
23.10.2018 10:00:00 9,2 -1,8 36 19 58 31 N 20 0,0
23.10.2018 09:00:00 8,6 -1,0 43 23 61 33 N 20 0,0
23.10.2018 08:00:00 8,2 -1,6 46 25 76 41 NNE 20 0,0
23.10.2018 07:00:00 7,4 -2,6 49 26 72 39 N 20 0,0
23.10.2018 06:00:00 6,4 -2,5 45 24 67 36 N 20 0,0
23.10.2018 05:00:00 7,2 -3,4 49 26 66 36 N 20 0,0
23.10.2018 04:00:00 6,9 -5,5 47 26 68 37 N 20 0,0
23.10.2018 03:00:00 7,9 -7,0 44 24 69 38 NNE 20 0,0
23.10.2018 02:00:00 7,2 -7,3 49 26 93 50 NNE 20 0,0
23.10.2018 01:00:00 5,8 -5,2 63 34 81 44 NNE 20 0,0
23.10.2018 00:00:00 5,4 -4,2 64 35 86 46 N 20 0,0
22.10.2018 23:00:00 4,6 -3,2 55 30 101 55 N 20 0,0
22.10.2018 22:00:00 4,7 -2,9 74 40 98 53 N 20 0,0
22.10.2018 21:00:00 5,4 -2,9 67 36 86 46 N 20 0,0
22.10.2018 20:00:00 6,2 -2,2 53 28 85 46 N 20 0,0
22.10.2018 19:00:00 7,3 -1,7 51 28 74 40 N 20 0,0
22.10.2018 18:00:00 8,7 -4,2 43 23 69 38 N 20 0,0
22.10.2018 17:00:00 10,0 -4,0 39 21 59 32 N 20 0,0
22.10.2018 16:00:00 10,7 -5,4 23 12 48 26 N 20 0,0
22.10.2018 15:00:00 10,9 -4,8 26 14 41 22 N 20 0,0
22.10.2018 14:00:00 10,8 -3,0 21 11 36 19 N 19 0,0
22.10.2018 13:00:00 10,8 -7,5 20 11 29 16 N 20 0,0
22.10.2018 12:00:00 10,2 -5,8 13 7 29 16 NNE 20 0,0
22.10.2018 11:00:00 9,8 -6,1 17 9 29 16 NNE 20 0,0
22.10.2018 10:00:00 9,4 -6,9 20 11 34 19 NNE 19 0,0
22.10.2018 09:00:00 9,0 -9,0 12 6 35 19 NNE 20 0,0
22.10.2018 08:00:00 8,4 -10,5 15 8 29 15 NNW 20 0,0
22.10.2018 07:00:00 8,7 -11,9 24 13 34 19 N 20 0,0
22.10.2018 06:00:00 9,7 -12,9 22 12 31 17 N 20 0,0
22.10.2018 05:00:00 9,6 -10,0 9 5 27 15 NNE 20 0,0
22.10.2018 04:00:00 9,5 -8,1 21 12 41 22 NNE 20 0,0
22.10.2018 03:00:00 10,3 -8,4 35 19 46 25 NNE 20 0,0
22.10.2018 02:00:00 9,9 -4,5 35 19 73 39 NNE 20 0,0
22.10.2018 01:00:00 10,7 -4,5 55 30 72 39 N 20 0,0
22.10.2018 00:00:00 11,2 -5,3 58 32 79 42 N 20 0,0
21.10.2018 23:00:00 10,6 -5,4 57 31 82 44 N 20 0,0
21.10.2018 22:00:00 9,4 -4,2 55 30 76 41 N 20 0,0
21.10.2018 21:00:00 9,4 -0,2 51 28 72 39 N 20 0,0
21.10.2018 20:00:00 10,6 0,3 55 30 71 39 NNW 20 0,0
21.10.2018 19:00:00 12,4 -2,7 40 22 64 35 N 20 0,0
21.10.2018 18:00:00 13,8 -3,5 39 21 56 30 N 20 0,0
21.10.2018 17:00:00 14,8 -2,2 34 19 55 30 N 20 0,0
21.10.2018 16:00:00 15,0 -2,9 35 19 50 27 N 20 0,0
21.10.2018 15:00:00 16,0 -2,1 23 12 41 22 N 20 0,0
21.10.2018 14:00:00 16,0 -1,6 13 7 28 15 N 20 0,0
21.10.2018 13:00:00 15,6 -6,7 14 8 26 14 N 18 0,0
21.10.2018 12:00:00 15,2 -5,3 17 9 28 15 N 20 0,0
21.10.2018 11:00:00 14,4 1,3 13 7 19 11 NNE 20 0,0
21.10.2018 10:00:00 13,2 2,1 14 8 18 10 N 20 0,0
21.10.2018 09:00:00 12,8 1,8 8 5 15 8 N 20 0,0
21.10.2018 08:00:00 12,4 2,0 13 7 20 11 NE 20 0,0
21.10.2018 07:00:00 10,7 1,5 18 10 26 14 NNE 20 0,0
21.10.2018 06:00:00 10,5 1,3 21 12 34 18 NNE 20 0,0
21.10.2018 05:00:00 10,5 1,0 24 13 36 19 N 20 0,0
21.10.2018 04:00:00 10,3 1,1 19 10 36 19 NNE 20 0,0
21.10.2018 03:00:00 10,5 1,0 21 11 35 19 N 20 0,0
21.10.2018 02:00:00 10,5 0,2 27 15 41 22 NNE 20 0,0
21.10.2018 01:00:00 10,8 0,2 32 17 42 23 NNE 20 0,0
21.10.2018 00:00:00 10,4 0,1 27 14 40 22 NNE 20 0,0
20.10.2018 23:00:00 10,8 0,2 31 17 40 22 NE 20 0,0
20.10.2018 22:00:00 10,1 4,0 29 15 39 21 NNE 20 0,0
20.10.2018 21:00:00 10,7 4,6 24 13 32 18 N 20 0,0
20.10.2018 20:00:00 11,7 8,5 10 5 15 8 NW 20 0,0
20.10.2018 19:00:00 12,6 8,1 9 5 19 10 NNW 20 0,0
20.10.2018 18:00:00 14,1 7,2 6 4 16 9 N 20 0,0
20.10.2018 17:00:00 14,8 6,9 5 3 16 9 N 20 0,0
20.10.2018 16:00:00 14,3 5,9 13 7 20 11 ENE 20 0,0
20.10.2018 15:00:00 14,1 6,4 11 6 23 12 NE 20 0,0
20.10.2018 14:00:00 13,5 6,6 15 8 24 13 NE 20 0,0
20.10.2018 13:00:00 12,9 6,5 14 7 31 17 ENE 19 0,0
20.10.2018 12:00:00 12,8 6,2 14 8 28 15 E 20 0,0
20.10.2018 11:00:00 12,4 4,6 12 7 23 12 E 20 0,0
20.10.2018 10:00:00 12,5 4,2 11 6 20 11 ESE 20 0,0
20.10.2018 09:00:00 11,6 4,6 13 7 24 13 ENE 20 0,0
20.10.2018 08:00:00 11,0 5,9 21 11 28 15 N 20 0,0
20.10.2018 07:00:00 10,8 6,0 20 11 23 13 N 20 0,0
20.10.2018 06:00:00 11,2 5,7 16 9 22 12 NE 20 0,0
20.10.2018 05:00:00 11,1 6,2 17 9 21 11 NE 20 0,0
20.10.2018 04:00:00 11,0 6,5 16 8 23 13 NE 20 0,0
20.10.2018 03:00:00 11,0 6,7 22 12 26 14 NE 20 0,0
20.10.2018 02:00:00 10,8 8,0 19 11 23 13 NE 20 0,0
20.10.2018 01:00:00 10,8 8,7 14 8 17 9 NNE 20 0,0
20.10.2018 00:00:00 10,9 8,5 16 9 25 14 N 20 0,0
19.10.2018 23:00:00 11,2 8,8 21 12 26 14 N 20 0,0
19.10.2018 22:00:00 10,7 9,8 24 13 29 15 NNW 13 0,0
19.10.2018 21:00:00 11,7 8,9 16 8 19 11 N 20 0,0
19.10.2018 20:00:00 11,8 9,0 18 10 24 13 N 20 0,0
19.10.2018 19:00:00 12,2 9,2 14 8 16 9 NNW 20 0,0
19.10.2018 18:00:00 13,4 9,1 5 3 11 6 NW 20 0,0
19.10.2018 17:00:00 14,0 9,6 5 3 17 9 NNE 20 0,0
19.10.2018 16:00:00 14,6 9,8 4 2 20 11 SSW 20 0,0
19.10.2018 15:00:00 14,5 9,5 5 3 16 9 SSE 20 0,0
19.10.2018 14:00:00 14,2 8,8 7 4 20 11 NE 20 0,0
19.10.2018 13:00:00 13,6 8,6 10 6 22 12 S 20 0,0
19.10.2018 12:00:00 13,8 8,6 10 6 19 10 S 20 0,0
19.10.2018 11:00:00 12,8 7,9 5 3 17 9 NE 20 0,0
19.10.2018 10:00:00 11,8 7,3 6 3 13 7 ESE 20 0,0
19.10.2018 09:00:00 10,5 6,8 4 2 18 10 N 20 0,0
19.10.2018 08:00:00 10,3 7,0 11 6 18 10 NW 20 0,0
19.10.2018 07:00:00 10,5 6,6 3 2 17 9 WSW 20 0,0
19.10.2018 06:00:00 10,4 5,8 14 8 19 11 S 20 0,0
19.10.2018 05:00:00 10,6 4,3 6 3 11 6 SSE 20 0,0
19.10.2018 04:00:00 9,9 4,7 6 4 24 13 SE 20 0,0
19.10.2018 03:00:00 10,3 4,4 18 10 23 12 E 20 0,0
19.10.2018 02:00:00 10,8 4,0 16 9 26 14 ENE 20 0,0
19.10.2018 01:00:00 11,1 3,6 17 9 27 15 E 20 0,0
19.10.2018 00:00:00 10,8 4,3 17 9 32 17 NE 20 0,0
18.10.2018 23:00:00 10,8 4,5 24 13 30 16 NE 20 0,0
18.10.2018 22:00:00 10,4 5,2 22 12 32 18 NNE 20 0,0
18.10.2018 21:00:00 10,4 7,6 27 15 32 17 N 20 0,0
18.10.2018 20:00:00 10,7 6,6 23 13 27 14 N 20 0,0
18.10.2018 19:00:00 11,3 7,8 14 7 19 10 N 20 0,0
18.10.2018 18:00:00 12,4 7,7 8 4 12 6 N 20 0,0
18.10.2018 17:00:00 12,5 6,5 6 3 13 7 E 20 0,0
18.10.2018 16:00:00 12,6 6,8 6 3 14 8 NE 20 0,0
18.10.2018 15:00:00 12,3 8,2 6 3 18 10 ENE 20 0,0
18.10.2018 14:00:00 12,1 8,8 6 4 23 12 NE 20 0,0
18.10.2018 13:00:00 11,8 8,3 12 7 22 12 NNE 15 0,0
18.10.2018 12:00:00 10,8 9,1 8 4 23 12 ENE 20 0,0
18.10.2018 11:00:00 9,8 9,2 15 8 44 24 SSE 20 0,0
18.10.2018 10:00:00 9,1 9,1 22 12 41 22 SSE 0,3 0,0
18.10.2018 09:00:00 8,9 8,9 21 12 41 22 SSE 0,2 0,0
18.10.2018 08:00:00 8,8 8,5 24 13 39 21 ESE 16 0,0
18.10.2018 07:00:00 7,8 7,0 27 15 50 27 ENE 16 0,0
18.10.2018 06:00:00 8,2 4,4 32 18 55 30 NE 20 0,0
18.10.2018 05:00:00 8,5 4,7 24 13 42 23 ENE 20 0,0
18.10.2018 04:00:00 8,8 4,0 29 16 46 25 NE 20 0,0
18.10.2018 03:00:00 8,6 4,0 27 15 39 21 NNE 20 0,0
18.10.2018 02:00:00 8,5 5,9 22 12 39 21 NE 20 0,0
18.10.2018 01:00:00 8,5 6,3 26 14 38 21 NE 20 0,4
18.10.2018 00:00:00 9,1 5,8 22 12 34 18 NE 20 0,0
17.10.2018 23:00:00 9,4 6,5 22 12 34 19 NE 20 0,0
17.10.2018 22:00:00 9,5 5,5 21 11 31 17 NE 20 0,0
17.10.2018 21:00:00 9,4 5,8 16 8 23 13 E 20 0,0
17.10.2018 20:00:00 9,4 5,2 15 8 31 17 E 20 0,0
17.10.2018 19:00:00 9,6 4,6 18 10 27 14 ESE 20 0,0
17.10.2018 18:00:00 9,9 5,5 15 8 29 16 E 20 0,0
17.10.2018 17:00:00 9,9 4,9 12 7 22 12 ENE 20 0,0
17.10.2018 16:00:00 9,8 5,4 12 7 23 12 E 19 0,0
17.10.2018 15:00:00 10,3 7,0 12 7 21 11 E 20 0,0
17.10.2018 14:00:00 9,7 7,1 11 6 19 10 ENE 20 0,0
17.10.2018 13:00:00 9,5 8,1 13 7 23 12 ENE 19 0,2
17.10.2018 12:00:00 9,0 5,7 16 8 27 14 ENE 14 0,0

tt = Température de l'air
td = dewpoint
ff = Vitesse du vent
fx = gusts
dd = Direction du vent
vv = visibility
rr = Quantités de précipitations

stations d'obs. à proximité